sensor_id;sensor_type;location;lat;lon;timestamp;temperature;humidity
66582;SHT31;53438;48.898;2.308;2023-04-21T03:00:26;7.43;74.98
66582;SHT31;53438;48.898;2.308;2023-04-21T03:02:52;7.31;75.16
66582;SHT31;53438;48.898;2.308;2023-04-21T03:05:17;7.42;74.87
66582;SHT31;53438;48.898;2.308;2023-04-21T03:07:44;7.54;74.65
66582;SHT31;53438;48.898;2.308;2023-04-21T03:10:10;7.44;74.64
66582;SHT31;53438;48.898;2.308;2023-04-21T03:12:35;7.28;75.22
66582;SHT31;53438;48.898;2.308;2023-04-21T03:15:01;7.31;75.13
66582;SHT31;53438;48.898;2.308;2023-04-21T03:17:26;7.26;75.88
66582;SHT31;53438;48.898;2.308;2023-04-21T03:19:52;6.85;76.77
66582;SHT31;53438;48.898;2.308;2023-04-21T03:22:17;6.92;77.06
66582;SHT31;53438;48.898;2.308;2023-04-21T03:24:42;6.81;77.64
66582;SHT31;53438;48.898;2.308;2023-04-21T03:27:08;6.93;77.28
66582;SHT31;53438;48.898;2.308;2023-04-21T03:29:34;6.96;76.99
66582;SHT31;53438;48.898;2.308;2023-04-21T03:32:00;7.13;76.60
66582;SHT31;53438;48.898;2.308;2023-04-21T03:34:25;7.37;75.98
66582;SHT31;53438;48.898;2.308;2023-04-21T03:36:51;7.36;75.71
66582;SHT31;53438;48.898;2.308;2023-04-21T03:39:16;7.50;75.33
66582;SHT31;53438;48.898;2.308;2023-04-21T03:41:41;7.63;74.76
66582;SHT31;53438;48.898;2.308;2023-04-21T03:44:07;7.60;74.80
66582;SHT31;53438;48.898;2.308;2023-04-21T03:46:32;7.63;74.92
66582;SHT31;53438;48.898;2.308;2023-04-21T03:48:57;7.68;74.66
66582;SHT31;53438;48.898;2.308;2023-04-21T03:51:23;7.73;74.67
66582;SHT31;53438;48.898;2.308;2023-04-21T03:53:48;7.66;74.85
66582;SHT31;53438;48.898;2.308;2023-04-21T03:56:13;7.44;75.74
66582;SHT31;53438;48.898;2.308;2023-04-21T03:58:39;7.51;75.77
66582;SHT31;53438;48.898;2.308;2023-04-21T04:01:05;7.74;75.09
66582;SHT31;53438;48.898;2.308;2023-04-21T04:03:31;7.53;75.65
66582;SHT31;53438;48.898;2.308;2023-04-21T04:05:56;7.57;75.60
66582;SHT31;53438;48.898;2.308;2023-04-21T04:08:22;7.60;75.45
66582;SHT31;53438;48.898;2.308;2023-04-21T04:10:47;7.46;75.90
66582;SHT31;53438;48.898;2.308;2023-04-21T04:13:12;7.61;75.29
66582;SHT31;53438;48.898;2.308;2023-04-21T04:15:38;7.53;75.74
66582;SHT31;53438;48.898;2.308;2023-04-21T04:18:03;7.56;75.65
66582;SHT31;53438;48.898;2.308;2023-04-21T04:20:28;7.63;75.45
66582;SHT31;53438;48.898;2.308;2023-04-21T04:22:54;7.28;76.79
66582;SHT31;53438;48.898;2.308;2023-04-21T04:25:19;7.30;76.83
66582;SHT31;53438;48.898;2.308;2023-04-21T04:27:45;7.42;76.51
66582;SHT31;53438;48.898;2.308;2023-04-21T04:30:11;7.47;76.40
66582;SHT31;53438;48.898;2.308;2023-04-21T04:32:38;7.44;76.68
66582;SHT31;53438;48.898;2.308;2023-04-21T04:35:05;7.57;76.18
66582;SHT31;53438;48.898;2.308;2023-04-21T04:37:30;7.48;76.23
66582;SHT31;53438;48.898;2.308;2023-04-21T04:39:58;7.47;76.26
66582;SHT31;53438;48.898;2.308;2023-04-21T04:42:24;7.50;76.30
66582;SHT31;53438;48.898;2.308;2023-04-21T04:44:52;7.53;76.20
66582;SHT31;53438;48.898;2.308;2023-04-21T04:47:18;7.68;75.84
66582;SHT31;53438;48.898;2.308;2023-04-21T04:49:43;7.70;75.81
66582;SHT31;53438;48.898;2.308;2023-04-21T04:52:08;7.70;75.75
66582;SHT31;53438;48.898;2.308;2023-04-21T04:54:34;7.66;76.16
66582;SHT31;53438;48.898;2.308;2023-04-21T04:57:00;7.82;75.74
66582;SHT31;53438;48.898;2.308;2023-04-21T04:59:26;7.70;76.33
66582;SHT31;53438;48.898;2.308;2023-04-21T05:01:52;7.60;76.56
66582;SHT31;53438;48.898;2.308;2023-04-21T05:04:17;7.56;77.05
66582;SHT31;53438;48.898;2.308;2023-04-21T05:06:43;7.54;77.06
66582;SHT31;53438;48.898;2.308;2023-04-21T05:09:08;7.71;76.85
66582;SHT31;53438;48.898;2.308;2023-04-21T05:11:34;7.75;76.53
66582;SHT31;53438;48.898;2.308;2023-04-21T05:13:59;7.71;76.56
66582;SHT31;53438;48.898;2.308;2023-04-21T05:16:25;7.74;76.63
66582;SHT31;53438;48.898;2.308;2023-04-21T05:18:50;7.68;76.86
66582;SHT31;53438;48.898;2.308;2023-04-21T05:21:27;7.70;76.93
66582;SHT31;53438;48.898;2.308;2023-04-21T05:23:54;7.79;76.65
66582;SHT31;53438;48.898;2.308;2023-04-21T05:26:20;7.73;76.72
66582;SHT31;53438;48.898;2.308;2023-04-21T05:28:45;7.89;76.36
66582;SHT31;53438;48.898;2.308;2023-04-21T05:31:10;7.84;76.40
66582;SHT31;53438;48.898;2.308;2023-04-21T05:33:36;7.74;76.76
66582;SHT31;53438;48.898;2.308;2023-04-21T05:36:05;7.85;76.63
66582;SHT31;53438;48.898;2.308;2023-04-21T05:38:31;7.88;76.60
66582;SHT31;53438;48.898;2.308;2023-04-21T05:40:56;7.82;76.87
66582;SHT31;53438;48.898;2.308;2023-04-21T05:43:21;7.70;77.16
66582;SHT31;53438;48.898;2.308;2023-04-21T05:45:47;7.68;77.02
66582;SHT31;53438;48.898;2.308;2023-04-21T05:48:12;7.71;77.18
66582;SHT31;53438;48.898;2.308;2023-04-21T05:50:38;7.66;77.47
66582;SHT31;53438;48.898;2.308;2023-04-21T05:53:03;7.73;77.45
66582;SHT31;53438;48.898;2.308;2023-04-21T05:55:28;7.87;76.76
66582;SHT31;53438;48.898;2.308;2023-04-21T05:57:54;7.88;76.84
66582;SHT31;53438;48.898;2.308;2023-04-21T06:00:19;7.98;76.84
66582;SHT31;53438;48.898;2.308;2023-04-21T06:02:45;7.95;76.98
66582;SHT31;53438;48.898;2.308;2023-04-21T06:05:10;7.94;77.17
66582;SHT31;53438;48.898;2.308;2023-04-21T06:07:35;7.88;77.34
66582;SHT31;53438;48.898;2.308;2023-04-21T06:10:02;8.02;76.89
66582;SHT31;53438;48.898;2.308;2023-04-21T06:12:27;8.18;77.39
66582;SHT31;53438;48.898;2.308;2023-04-21T06:14:53;8.05;77.61
66582;SHT31;53438;48.898;2.308;2023-04-21T06:17:22;8.02;77.48
66582;SHT31;53438;48.898;2.308;2023-04-21T06:19:47;8.06;76.83
66582;SHT31;53438;48.898;2.308;2023-04-21T06:22:18;7.96;77.67
66582;SHT31;53438;48.898;2.308;2023-04-21T06:24:43;8.02;77.64
66582;SHT31;53438;48.898;2.308;2023-04-21T06:27:12;8.18;76.54
66582;SHT31;53438;48.898;2.308;2023-04-21T06:29:38;8.25;76.37
66582;SHT31;53438;48.898;2.308;2023-04-21T06:32:04;8.45;75.88
66582;SHT31;53438;48.898;2.308;2023-04-21T06:34:29;8.33;76.05
66582;SHT31;53438;48.898;2.308;2023-04-21T06:36:54;8.36;76.27
66582;SHT31;53438;48.898;2.308;2023-04-21T06:39:20;8.21;76.11
66582;SHT31;53438;48.898;2.308;2023-04-21T06:41:45;8.26;75.86
66582;SHT31;53438;48.898;2.308;2023-04-21T06:44:10;8.24;76.56
66582;SHT31;53438;48.898;2.308;2023-04-21T06:46:39;8.22;76.62
66582;SHT31;53438;48.898;2.308;2023-04-21T06:49:08;8.32;76.38
66582;SHT31;53438;48.898;2.308;2023-04-21T06:51:33;8.33;75.57
66582;SHT31;53438;48.898;2.308;2023-04-21T06:53:59;8.36;75.43
66582;SHT31;53438;48.898;2.308;2023-04-21T06:56:29;8.39;75.47
66582;SHT31;53438;48.898;2.308;2023-04-21T06:58:55;8.30;75.39
66582;SHT31;53438;48.898;2.308;2023-04-21T07:01:20;8.36;75.77
66582;SHT31;53438;48.898;2.308;2023-04-21T07:03:46;8.32;75.81
66582;SHT31;53438;48.898;2.308;2023-04-21T07:06:11;8.45;74.78
66582;SHT31;53438;48.898;2.308;2023-04-21T07:08:37;8.33;75.45
66582;SHT31;53438;48.898;2.308;2023-04-21T07:11:03;8.40;74.89
66582;SHT31;53438;48.898;2.308;2023-04-21T07:13:28;8.33;75.51
66582;SHT31;53438;48.898;2.308;2023-04-21T07:15:54;8.36;75.03
66582;SHT31;53438;48.898;2.308;2023-04-21T07:18:19;8.36;74.95
66582;SHT31;53438;48.898;2.308;2023-04-21T07:20:45;8.43;75.07
66582;SHT31;53438;48.898;2.308;2023-04-21T07:23:10;8.63;74.88
66582;SHT31;53438;48.898;2.308;2023-04-21T07:25:35;8.76;73.98
66582;SHT31;53438;48.898;2.308;2023-04-21T07:28:01;8.74;73.74
66582;SHT31;53438;48.898;2.308;2023-04-21T07:30:27;8.74;72.82
66582;SHT31;53438;48.898;2.308;2023-04-21T07:32:54;8.67;72.54
66582;SHT31;53438;48.898;2.308;2023-04-21T07:35:19;8.64;72.40
66582;SHT31;53438;48.898;2.308;2023-04-21T07:37:44;8.68;71.75
66582;SHT31;53438;48.898;2.308;2023-04-21T07:40:11;8.63;71.78
66582;SHT31;53438;48.898;2.308;2023-04-21T07:42:38;8.83;71.11
66582;SHT31;53438;48.898;2.308;2023-04-21T07:45:04;9.03;69.80
66582;SHT31;53438;48.898;2.308;2023-04-21T07:47:30;9.14;69.05
66582;SHT31;53438;48.898;2.308;2023-04-21T07:49:56;9.34;69.68
66582;SHT31;53438;48.898;2.308;2023-04-21T07:52:21;9.34;69.43
66582;SHT31;53438;48.898;2.308;2023-04-21T07:54:47;9.52;69.84
66582;SHT31;53438;48.898;2.308;2023-04-21T07:57:12;9.53;69.40
66582;SHT31;53438;48.898;2.308;2023-04-21T07:59:37;9.62;69.42
66582;SHT31;53438;48.898;2.308;2023-04-21T08:02:03;9.45;69.46
66582;SHT31;53438;48.898;2.308;2023-04-21T08:04:28;9.63;69.57
66582;SHT31;53438;48.898;2.308;2023-04-21T08:06:54;9.75;68.89
66582;SHT31;53438;48.898;2.308;2023-04-21T08:09:19;9.55;69.20
66582;SHT31;53438;48.898;2.308;2023-04-21T08:11:45;9.00;70.76
66582;SHT31;53438;48.898;2.308;2023-04-21T08:14:11;9.18;70.72
66582;SHT31;53438;48.898;2.308;2023-04-21T08:16:38;9.35;69.33
66582;SHT31;53438;48.898;2.308;2023-04-21T08:19:05;9.56;69.04
66582;SHT31;53438;48.898;2.308;2023-04-21T08:21:31;9.80;68.51
66582;SHT31;53438;48.898;2.308;2023-04-21T08:23:57;9.85;66.79
66582;SHT31;53438;48.898;2.308;2023-04-21T08:26:23;10.01;65.29
66582;SHT31;53438;48.898;2.308;2023-04-21T08:28:49;10.01;65.13
66582;SHT31;53438;48.898;2.308;2023-04-21T08:31:16;10.11;64.88
66582;SHT31;53438;48.898;2.308;2023-04-21T08:33:42;10.22;64.55
66582;SHT31;53438;48.898;2.308;2023-04-21T08:36:07;10.04;64.52
66582;SHT31;53438;48.898;2.308;2023-04-21T08:38:34;10.24;65.11
66582;SHT31;53438;48.898;2.308;2023-04-21T08:41:00;10.54;66.18
66582;SHT31;53438;48.898;2.308;2023-04-21T08:43:27;10.69;66.85
66582;SHT31;53438;48.898;2.308;2023-04-21T08:45:53;10.85;66.32
66582;SHT31;53438;48.898;2.308;2023-04-21T08:48:20;11.03;64.83
66582;SHT31;53438;48.898;2.308;2023-04-21T08:50:48;11.16;64.27
66582;SHT31;53438;48.898;2.308;2023-04-21T08:53:15;11.31;60.63
66582;SHT31;53438;48.898;2.308;2023-04-21T08:55:41;11.40;60.49
66582;SHT31;53438;48.898;2.308;2023-04-21T08:58:06;11.44;58.62
66582;SHT31;53438;48.898;2.308;2023-04-21T09:00:36;11.30;59.07
66582;SHT31;53438;48.898;2.308;2023-04-21T09:03:02;11.03;59.41
66582;SHT31;53438;48.898;2.308;2023-04-21T09:05:30;10.85;59.65
66582;SHT31;53438;48.898;2.308;2023-04-21T09:08:10;10.54;61.22
66582;SHT31;53438;48.898;2.308;2023-04-21T09:11:02;10.71;62.44
66582;SHT31;53438;48.898;2.308;2023-04-21T09:13:30;10.80;62.27
66582;SHT31;53438;48.898;2.308;2023-04-21T09:15:57;10.86;62.33
66582;SHT31;53438;48.898;2.308;2023-04-21T09:18:24;10.96;62.66
66582;SHT31;53438;48.898;2.308;2023-04-21T09:21:13;10.97;60.87
66582;SHT31;53438;48.898;2.308;2023-04-21T09:23:47;10.89;59.67
66582;SHT31;53438;48.898;2.308;2023-04-21T09:26:13;10.79;60.07
66582;SHT31;53438;48.898;2.308;2023-04-21T09:28:41;10.82;59.90
66582;SHT31;53438;48.898;2.308;2023-04-21T09:31:21;10.82;60.60
66582;SHT31;53438;48.898;2.308;2023-04-21T09:33:51;10.92;59.97
66582;SHT31;53438;48.898;2.308;2023-04-21T09:36:25;10.89;59.56
66582;SHT31;53438;48.898;2.308;2023-04-21T09:39:00;10.91;60.79
66582;SHT31;53438;48.898;2.308;2023-04-21T09:41:26;11.00;62.61
66582;SHT31;53438;48.898;2.308;2023-04-21T09:43:51;11.06;61.52
66582;SHT31;53438;48.898;2.308;2023-04-21T09:46:17;10.86;61.66
66582;SHT31;53438;48.898;2.308;2023-04-21T09:48:44;10.82;61.32
66582;SHT31;53438;48.898;2.308;2023-04-21T09:51:11;10.75;61.78
66582;SHT31;53438;48.898;2.308;2023-04-21T09:53:38;10.76;61.48
66582;SHT31;53438;48.898;2.308;2023-04-21T09:56:06;10.59;62.08
66582;SHT31;53438;48.898;2.308;2023-04-21T09:58:51;10.61;61.90
66582;SHT31;53438;48.898;2.308;2023-04-21T10:01:18;10.76;61.60
66582;SHT31;53438;48.898;2.308;2023-04-21T10:03:47;10.73;61.27
66582;SHT31;53438;48.898;2.308;2023-04-21T10:06:13;10.75;60.87
66582;SHT31;53438;48.898;2.308;2023-04-21T10:08:39;10.76;60.44
66582;SHT31;53438;48.898;2.308;2023-04-21T10:11:05;10.85;59.15
66582;SHT31;53438;48.898;2.308;2023-04-21T10:13:31;10.72;59.30
66582;SHT31;53438;48.898;2.308;2023-04-21T10:16:07;10.83;59.25
66582;SHT31;53438;48.898;2.308;2023-04-21T10:18:45;10.88;58.91
66582;SHT31;53438;48.898;2.308;2023-04-21T10:21:12;10.48;58.86
66582;SHT31;53438;48.898;2.308;2023-04-21T10:23:43;10.51;58.46
66582;SHT31;53438;48.898;2.308;2023-04-21T10:26:21;10.38;58.49
66582;SHT31;53438;48.898;2.308;2023-04-21T10:29:02;10.46;58.04
66582;SHT31;53438;48.898;2.308;2023-04-21T10:34:11;10.72;57.53
66582;SHT31;53438;48.898;2.308;2023-04-21T10:41:54;11.02;57.12
66582;SHT31;53438;48.898;2.308;2023-04-21T10:44:22;11.10;56.01
66582;SHT31;53438;48.898;2.308;2023-04-21T10:46:52;11.07;56.19
66582;SHT31;53438;48.898;2.308;2023-04-21T10:49:24;11.22;56.10
66582;SHT31;53438;48.898;2.308;2023-04-21T10:54:21;11.17;57.72
66582;SHT31;53438;48.898;2.308;2023-04-21T10:56:51;11.13;57.51
66582;SHT31;53438;48.898;2.308;2023-04-21T10:59:18;11.13;57.13
66582;SHT31;53438;48.898;2.308;2023-04-21T11:01:44;11.24;57.43
66582;SHT31;53438;48.898;2.308;2023-04-21T11:04:16;11.22;57.29
66582;SHT31;53438;48.898;2.308;2023-04-21T11:06:42;11.26;56.93
66582;SHT31;53438;48.898;2.308;2023-04-21T11:09:08;11.27;56.82
66582;SHT31;53438;48.898;2.308;2023-04-21T11:11:33;11.24;56.39
66582;SHT31;53438;48.898;2.308;2023-04-21T11:14:00;10.97;56.68
66582;SHT31;53438;48.898;2.308;2023-04-21T11:16:26;11.17;55.99
66582;SHT31;53438;48.898;2.308;2023-04-21T11:18:52;11.23;56.02
66582;SHT31;53438;48.898;2.308;2023-04-21T11:21:18;11.07;55.82
66582;SHT31;53438;48.898;2.308;2023-04-21T11:23:53;11.17;56.72
66582;SHT31;53438;48.898;2.308;2023-04-21T11:26:32;11.23;56.76
66582;SHT31;53438;48.898;2.308;2023-04-21T11:29:02;11.20;56.55
66582;SHT31;53438;48.898;2.308;2023-04-21T11:31:28;11.23;56.17
66582;SHT31;53438;48.898;2.308;2023-04-21T11:33:54;11.24;56.47
66582;SHT31;53438;48.898;2.308;2023-04-21T11:36:21;11.22;56.79
66582;SHT31;53438;48.898;2.308;2023-04-21T11:38:47;11.12;56.96
66582;SHT31;53438;48.898;2.308;2023-04-21T11:41:19;11.17;56.77
66582;SHT31;53438;48.898;2.308;2023-04-21T11:43:46;11.38;55.96
66582;SHT31;53438;48.898;2.308;2023-04-21T11:46:25;11.20;55.72
66582;SHT31;53438;48.898;2.308;2023-04-21T11:51:36;11.37;55.08
66582;SHT31;53438;48.898;2.308;2023-04-21T11:54:04;11.51;54.14
66582;SHT31;53438;48.898;2.308;2023-04-21T11:56:34;11.73;54.38
66582;SHT31;53438;48.898;2.308;2023-04-21T11:59:08;11.81;53.89
66582;SHT31;53438;48.898;2.308;2023-04-21T12:01:41;12.09;54.12
66582;SHT31;53438;48.898;2.308;2023-04-21T12:04:13;12.32;52.81
66582;SHT31;53438;48.898;2.308;2023-04-21T12:06:39;12.21;52.03
66582;SHT31;53438;48.898;2.308;2023-04-21T12:09:05;11.96;52.46
66582;SHT31;53438;48.898;2.308;2023-04-21T12:11:30;12.11;52.90
66582;SHT31;53438;48.898;2.308;2023-04-21T12:13:59;12.22;52.09
66582;SHT31;53438;48.898;2.308;2023-04-21T12:16:28;12.01;51.24
66582;SHT31;53438;48.898;2.308;2023-04-21T12:18:57;12.22;51.43
66582;SHT31;53438;48.898;2.308;2023-04-21T12:21:29;12.25;51.76
66582;SHT31;53438;48.898;2.308;2023-04-21T12:23:54;12.36;51.36
66582;SHT31;53438;48.898;2.308;2023-04-21T12:26:20;12.43;52.03
66582;SHT31;53438;48.898;2.308;2023-04-21T12:28:46;12.49;51.40
66582;SHT31;53438;48.898;2.308;2023-04-21T12:31:12;12.32;50.74
66582;SHT31;53438;48.898;2.308;2023-04-21T12:33:38;12.23;50.46
66582;SHT31;53438;48.898;2.308;2023-04-21T12:36:04;12.25;50.54
66582;SHT31;53438;48.898;2.308;2023-04-21T12:38:29;12.28;50.85
66582;SHT31;53438;48.898;2.308;2023-04-21T12:40:54;12.36;50.06
66582;SHT31;53438;48.898;2.308;2023-04-21T12:43:20;12.70;51.78
66582;SHT31;53438;48.898;2.308;2023-04-21T12:45:45;12.76;48.96
66582;SHT31;53438;48.898;2.308;2023-04-21T12:48:10;12.94;48.86
66582;SHT31;53438;48.898;2.308;2023-04-21T12:50:36;13.11;48.83
66582;SHT31;53438;48.898;2.308;2023-04-21T12:53:01;13.38;48.70
66582;SHT31;53438;48.898;2.308;2023-04-21T12:55:26;13.46;47.55
66582;SHT31;53438;48.898;2.308;2023-04-21T12:57:52;13.58;47.50
66582;SHT31;53438;48.898;2.308;2023-04-21T13:00:17;13.55;47.11
66582;SHT31;53438;48.898;2.308;2023-04-21T13:02:43;13.07;47.11
66582;SHT31;53438;48.898;2.308;2023-04-21T13:05:09;13.15;47.73
66582;SHT31;53438;48.898;2.308;2023-04-21T13:07:36;13.41;48.13
66582;SHT31;53438;48.898;2.308;2023-04-21T13:10:03;13.52;47.08
66582;SHT31;53438;48.898;2.308;2023-04-21T13:12:30;13.55;47.05
66582;SHT31;53438;48.898;2.308;2023-04-21T13:14:56;13.56;47.06
66582;SHT31;53438;48.898;2.308;2023-04-21T13:17:21;13.70;46.89
66582;SHT31;53438;48.898;2.308;2023-04-21T13:19:46;13.55;46.61
66582;SHT31;53438;48.898;2.308;2023-04-21T13:22:12;13.49;47.17
66582;SHT31;53438;48.898;2.308;2023-04-21T13:24:38;13.39;47.06
66582;SHT31;53438;48.898;2.308;2023-04-21T13:27:03;13.18;47.45
66582;SHT31;53438;48.898;2.308;2023-04-21T13:29:29;13.15;47.55
66582;SHT31;53438;48.898;2.308;2023-04-21T13:31:58;13.19;47.88
66582;SHT31;53438;48.898;2.308;2023-04-21T13:34:24;13.24;47.72
66582;SHT31;53438;48.898;2.308;2023-04-21T13:36:52;13.32;47.91
66582;SHT31;53438;48.898;2.308;2023-04-21T13:39:18;13.24;47.57
66582;SHT31;53438;48.898;2.308;2023-04-21T13:41:45;13.28;48.62
66582;SHT31;53438;48.898;2.308;2023-04-21T13:44:10;13.11;47.23
66582;SHT31;53438;48.898;2.308;2023-04-21T13:46:36;12.93;47.74
66582;SHT31;53438;48.898;2.308;2023-04-21T13:49:02;13.00;46.91
66582;SHT31;53438;48.898;2.308;2023-04-21T13:51:27;13.15;46.59
66582;SHT31;53438;48.898;2.308;2023-04-21T13:53:54;13.19;46.84
66582;SHT31;53438;48.898;2.308;2023-04-21T13:56:19;13.26;46.06
66582;SHT31;53438;48.898;2.308;2023-04-21T13:58:45;13.39;46.10
66582;SHT31;53438;48.898;2.308;2023-04-21T14:01:12;13.42;45.44
66582;SHT31;53438;48.898;2.308;2023-04-21T14:03:38;13.15;45.87
66582;SHT31;53438;48.898;2.308;2023-04-21T14:06:04;13.24;45.64
66582;SHT31;53438;48.898;2.308;2023-04-21T14:08:29;13.29;45.80
66582;SHT31;53438;48.898;2.308;2023-04-21T14:10:55;13.41;45.70
66582;SHT31;53438;48.898;2.308;2023-04-21T14:13:21;13.36;46.30
66582;SHT31;53438;48.898;2.308;2023-04-21T14:15:47;13.41;45.76
66582;SHT31;53438;48.898;2.308;2023-04-21T14:18:12;13.49;46.67
66582;SHT31;53438;48.898;2.308;2023-04-21T14:20:38;13.62;44.48
66582;SHT31;53438;48.898;2.308;2023-04-21T14:23:03;13.59;44.96
66582;SHT31;53438;48.898;2.308;2023-04-21T14:25:28;13.62;44.52
66582;SHT31;53438;48.898;2.308;2023-04-21T14:27:54;13.59;44.41
66582;SHT31;53438;48.898;2.308;2023-04-21T14:30:19;13.74;46.45
66582;SHT31;53438;48.898;2.308;2023-04-21T14:32:45;13.83;46.88
66582;SHT31;53438;48.898;2.308;2023-04-21T14:35:11;13.84;45.51
66582;SHT31;53438;48.898;2.308;2023-04-21T14:37:37;13.80;44.40
66582;SHT31;53438;48.898;2.308;2023-04-21T14:40:03;13.91;46.16
66582;SHT31;53438;48.898;2.308;2023-04-21T14:42:28;13.99;44.88
66582;SHT31;53438;48.898;2.308;2023-04-21T14:44:54;13.84;43.11
66582;SHT31;53438;48.898;2.308;2023-04-21T14:47:20;14.01;43.63
66582;SHT31;53438;48.898;2.308;2023-04-21T14:49:46;14.11;44.00
66582;SHT31;53438;48.898;2.308;2023-04-21T14:52:16;14.23;44.15
66582;SHT31;53438;48.898;2.308;2023-04-21T14:54:43;14.61;43.35
66582;SHT31;53438;48.898;2.308;2023-04-21T14:57:08;14.61;43.17
66582;SHT31;53438;48.898;2.308;2023-04-21T14:59:33;14.52;43.74
66582;SHT31;53438;48.898;2.308;2023-04-21T15:02:01;14.67;44.73
66582;SHT31;53438;48.898;2.308;2023-04-21T15:04:27;14.75;43.24
66582;SHT31;53438;48.898;2.308;2023-04-21T15:06:52;14.83;43.12
66582;SHT31;53438;48.898;2.308;2023-04-21T15:09:19;14.83;42.98
66582;SHT31;53438;48.898;2.308;2023-04-21T15:11:45;14.88;42.15
66582;SHT31;53438;48.898;2.308;2023-04-21T15:14:10;14.85;41.82
66582;SHT31;53438;48.898;2.308;2023-04-21T15:16:36;14.76;42.05
66582;SHT31;53438;48.898;2.308;2023-04-21T15:19:02;14.89;42.70
66582;SHT31;53438;48.898;2.308;2023-04-21T15:21:27;15.02;43.06
66582;SHT31;53438;48.898;2.308;2023-04-21T15:23:52;15.18;43.60
66582;SHT31;53438;48.898;2.308;2023-04-21T15:26:18;15.24;42.21
66582;SHT31;53438;48.898;2.308;2023-04-21T15:28:43;15.30;40.93
66582;SHT31;53438;48.898;2.308;2023-04-21T15:31:08;15.24;40.88
66582;SHT31;53438;48.898;2.308;2023-04-21T15:33:34;15.36;41.54
66582;SHT31;53438;48.898;2.308;2023-04-21T15:36:00;15.43;40.86
66582;SHT31;53438;48.898;2.308;2023-04-21T15:38:25;15.24;40.03
66582;SHT31;53438;48.898;2.308;2023-04-21T15:40:50;15.22;40.17
66582;SHT31;53438;48.898;2.308;2023-04-21T15:43:16;15.24;40.27
66582;SHT31;53438;48.898;2.308;2023-04-21T15:45:41;15.26;39.89
66582;SHT31;53438;48.898;2.308;2023-04-21T15:48:07;15.23;40.18
66582;SHT31;53438;48.898;2.308;2023-04-21T15:50:32;15.34;39.90
66582;SHT31;53438;48.898;2.308;2023-04-21T15:52:58;15.31;39.36
66582;SHT31;53438;48.898;2.308;2023-04-21T15:55:23;15.43;39.17
66582;SHT31;53438;48.898;2.308;2023-04-21T15:57:52;15.49;39.46
66582;SHT31;53438;48.898;2.308;2023-04-21T16:00:17;15.53;39.43
66582;SHT31;53438;48.898;2.308;2023-04-21T16:02:42;15.49;39.25
66582;SHT31;53438;48.898;2.308;2023-04-21T16:05:08;15.24;39.51
66582;SHT31;53438;48.898;2.308;2023-04-21T16:07:33;15.18;40.06
66582;SHT31;53438;48.898;2.308;2023-04-21T16:09:59;15.18;40.43
66582;SHT31;53438;48.898;2.308;2023-04-21T16:12:24;14.98;40.45
66582;SHT31;53438;48.898;2.308;2023-04-21T16:14:49;15.00;41.08
66582;SHT31;53438;48.898;2.308;2023-04-21T16:17:15;14.98;40.32
66582;SHT31;53438;48.898;2.308;2023-04-21T16:19:40;15.00;40.38
66582;SHT31;53438;48.898;2.308;2023-04-21T16:22:08;14.82;40.39
66582;SHT31;53438;48.898;2.308;2023-04-21T16:24:34;14.81;40.57
66582;SHT31;53438;48.898;2.308;2023-04-21T16:26:59;14.71;41.24
66582;SHT31;53438;48.898;2.308;2023-04-21T16:29:27;14.69;41.33
66582;SHT31;53438;48.898;2.308;2023-04-21T16:31:52;14.61;41.13
66582;SHT31;53438;48.898;2.308;2023-04-21T16:34:17;14.69;42.55
66582;SHT31;53438;48.898;2.308;2023-04-21T16:36:43;14.67;40.88
66582;SHT31;53438;48.898;2.308;2023-04-21T16:39:08;14.60;41.13
66582;SHT31;53438;48.898;2.308;2023-04-21T16:41:33;14.58;41.35
66582;SHT31;53438;48.898;2.308;2023-04-21T16:43:59;14.58;40.96
66582;SHT31;53438;48.898;2.308;2023-04-21T16:46:24;14.54;41.51
66582;SHT31;53438;48.898;2.308;2023-04-21T16:48:50;14.52;41.64
66582;SHT31;53438;48.898;2.308;2023-04-21T16:51:16;14.62;41.14
66582;SHT31;53438;48.898;2.308;2023-04-21T16:53:41;14.57;41.75
66582;SHT31;53438;48.898;2.308;2023-04-21T16:56:07;14.57;40.83
66582;SHT31;53438;48.898;2.308;2023-04-21T16:58:32;14.54;41.35
66582;SHT31;53438;48.898;2.308;2023-04-21T17:00:57;14.52;42.46
66582;SHT31;53438;48.898;2.308;2023-04-21T17:03:23;14.49;43.11
66582;SHT31;53438;48.898;2.308;2023-04-21T17:05:51;14.51;41.41
66582;SHT31;53438;48.898;2.308;2023-04-21T17:08:17;14.46;41.36
66582;SHT31;53438;48.898;2.308;2023-04-21T17:10:42;14.41;41.54
66582;SHT31;53438;48.898;2.308;2023-04-21T17:13:07;14.52;40.80
66582;SHT31;53438;48.898;2.308;2023-04-21T17:15:33;14.32;41.21
66582;SHT31;53438;48.898;2.308;2023-04-21T17:17:58;14.37;41.65
66582;SHT31;53438;48.898;2.308;2023-04-21T17:20:23;14.37;41.17
66582;SHT31;53438;48.898;2.308;2023-04-21T17:22:49;14.27;40.89
66582;SHT31;53438;48.898;2.308;2023-04-21T17:25:14;14.21;41.41
66582;SHT31;53438;48.898;2.308;2023-04-21T17:27:40;14.21;41.96
66582;SHT31;53438;48.898;2.308;2023-04-21T17:30:07;14.17;42.97
66582;SHT31;53438;48.898;2.308;2023-04-21T17:32:34;14.18;43.85
66582;SHT31;53438;48.898;2.308;2023-04-21T17:35:00;14.16;43.29
66582;SHT31;53438;48.898;2.308;2023-04-21T17:37:25;14.11;42.58
66582;SHT31;53438;48.898;2.308;2023-04-21T17:39:50;14.11;45.04
66582;SHT31;53438;48.898;2.308;2023-04-21T17:42:18;14.07;43.04
66582;SHT31;53438;48.898;2.308;2023-04-21T17:44:43;14.06;42.08
66582;SHT31;53438;48.898;2.308;2023-04-21T17:47:09;14.04;42.25
66582;SHT31;53438;48.898;2.308;2023-04-21T17:49:35;14.04;42.33
66582;SHT31;53438;48.898;2.308;2023-04-21T17:52:00;14.09;42.47
66582;SHT31;53438;48.898;2.308;2023-04-21T17:54:26;14.10;42.00
66582;SHT31;53438;48.898;2.308;2023-04-21T17:56:51;14.01;42.15
66582;SHT31;53438;48.898;2.308;2023-04-21T17:59:16;13.97;42.82
66582;SHT31;53438;48.898;2.308;2023-04-21T18:01:42;13.97;42.06
66582;SHT31;53438;48.898;2.308;2023-04-21T18:04:07;13.93;42.16
66582;SHT31;53438;48.898;2.308;2023-04-21T18:06:33;14.01;42.02
66582;SHT31;53438;48.898;2.308;2023-04-21T18:08:59;13.96;42.35
66582;SHT31;53438;48.898;2.308;2023-04-21T18:11:24;14.04;41.94
66582;SHT31;53438;48.898;2.308;2023-04-21T18:13:50;14.01;42.09
66582;SHT31;53438;48.898;2.308;2023-04-21T18:16:15;14.01;42.13
66582;SHT31;53438;48.898;2.308;2023-04-21T18:18:41;14.09;41.79
66582;SHT31;53438;48.898;2.308;2023-04-21T18:21:06;14.06;41.95
66582;SHT31;53438;48.898;2.308;2023-04-21T18:23:32;13.96;42.62
66582;SHT31;53438;48.898;2.308;2023-04-21T18:25:57;13.91;42.53
66582;SHT31;53438;48.898;2.308;2023-04-21T18:28:23;13.90;42.54
66582;SHT31;53438;48.898;2.308;2023-04-21T18:30:49;13.87;42.39
66582;SHT31;53438;48.898;2.308;2023-04-21T18:33:14;13.82;42.54
66582;SHT31;53438;48.898;2.308;2023-04-21T18:35:40;13.90;42.77
66582;SHT31;53438;48.898;2.308;2023-04-21T18:38:06;13.94;42.45
66582;SHT31;53438;48.898;2.308;2023-04-21T18:40:33;13.90;42.60
66582;SHT31;53438;48.898;2.308;2023-04-21T18:43:01;13.84;42.68